カラカス の空港の天気 - METARとTAF

シモン・ボリバー空港(バルガス) ( SVMI / CCS ) - ベネズエラ バルガス州、Maiquetia (カラカス近郊)
飛行場実況気象(Metar)
観測時間10/16 04:00 VET (10/16 08:00 UTC)
風向・風速静穏 0m/s
視程10km以上
天気現象
全天の4割程度の雲 雲底高度 490m
気温25℃
湿度89%
気圧1010hPa
METARSVMI 160800Z 00000KT 9999 SCT016 25/23 Q1010 NOSIG
過去の天気等 Google飛行場航空写真 Wunderground天気予報

過去48時間のMETAR

飛行場予報(TAF)
発表時間: 10/15 06:00 VET (10/15 10:00 UTC)
予報対象時間: 15日14時 VET ~ 16日14時 VET
風向・風速東 3m/s
視程10km以上
少しの雲 雲底高度 490m
15日14時 VET ~ 15日19時 VET に徐々に
風向・風速東 3m/s
全天の4割程度の雲 雲底高度 490m
14日20時 VET から
風向・風速静穏
視程10km以上
少しの雲 雲底高度 490m
TAF SVMI 151000Z 1518/1618 09005KT 9999 FEW016 TX33/19Z TN24/08Z
BECMG 1518/1523 09005KT SCT016
FM150000 00000KT 9999 FEW016